createdAt,value
2023-09-03T00:01:42.080Z,18.72
2023-09-03T00:04:15.673Z,18.74
2023-09-03T00:06:46.476Z,18.71
2023-09-03T00:09:19.259Z,18.71
2023-09-03T00:11:49.844Z,18.70
2023-09-03T00:14:20.409Z,18.66
2023-09-03T00:16:51.188Z,18.64
2023-09-03T00:19:26.023Z,18.63
2023-09-03T00:21:56.591Z,18.60
2023-09-03T00:24:28.891Z,18.60
2023-09-03T00:26:59.330Z,18.56
2023-09-03T00:29:30.658Z,18.53
2023-09-03T00:32:01.134Z,18.55
2023-09-03T00:34:35.214Z,18.53
2023-09-03T00:37:06.008Z,18.54
2023-09-03T00:39:38.312Z,18.51
2023-09-03T00:42:08.895Z,18.47
2023-09-03T00:44:40.799Z,18.48
2023-09-03T00:47:12.582Z,18.45
2023-09-03T00:49:48.325Z,18.43
2023-09-03T00:52:21.006Z,18.42
2023-09-03T00:54:51.807Z,18.36
2023-09-03T00:57:22.209Z,18.35
2023-09-03T00:59:54.982Z,18.35
2023-09-03T01:02:26.467Z,18.40
2023-09-03T01:05:00.032Z,18.36
2023-09-03T01:07:32.206Z,18.41
2023-09-03T01:10:03.075Z,18.38
2023-09-03T01:12:40.260Z,18.34
2023-09-03T01:15:17.834Z,18.36
2023-09-03T01:18:01.036Z,18.33
2023-09-03T01:20:40.013Z,18.32
2023-09-03T01:23:34.262Z,18.29
2023-09-03T01:26:15.395Z,18.26
2023-09-03T01:28:51.478Z,18.24
2023-09-03T01:31:24.099Z,18.24
2023-09-03T01:34:03.260Z,18.23
2023-09-03T01:36:36.642Z,18.22
2023-09-03T01:39:07.664Z,18.08
2023-09-03T01:41:39.537Z,18.10
2023-09-03T01:44:13.437Z,18.09
2023-09-03T01:46:50.124Z,18.08
2023-09-03T01:49:35.056Z,18.05
2023-09-03T01:52:16.233Z,18.03
2023-09-03T01:54:50.997Z,18.02
2023-09-03T01:57:28.248Z,17.99
2023-09-03T02:00:04.888Z,17.97
2023-09-03T02:02:46.443Z,17.93
2023-09-03T02:05:17.839Z,17.81
2023-09-03T02:07:48.261Z,17.84
2023-09-03T02:10:21.087Z,17.86
2023-09-03T02:12:51.876Z,17.86
2023-09-03T02:15:26.792Z,17.83
2023-09-03T02:17:57.913Z,17.74
2023-09-03T02:20:29.270Z,17.62
2023-09-03T02:23:00.064Z,17.65
2023-09-03T02:25:31.536Z,17.64
2023-09-03T02:28:02.155Z,17.57
2023-09-03T02:30:36.674Z,17.58
2023-09-03T02:33:07.803Z,17.57
2023-09-03T02:35:41.448Z,17.47
2023-09-03T02:38:11.979Z,17.45
2023-09-03T02:40:42.692Z,17.34
2023-09-03T02:43:13.154Z,17.42
2023-09-03T02:45:46.454Z,17.46
2023-09-03T02:48:19.617Z,17.38
2023-09-03T02:50:50.439Z,17.30
2023-09-03T02:53:21.059Z,17.34
2023-09-03T02:55:51.952Z,17.39
2023-09-03T02:58:22.760Z,17.37
2023-09-03T03:00:59.296Z,17.38
2023-09-03T03:03:30.243Z,17.36
2023-09-03T03:06:01.741Z,17.34
2023-09-03T03:08:32.831Z,17.31
2023-09-03T03:11:11.763Z,17.28
2023-09-03T03:13:47.724Z,17.30
2023-09-03T03:16:23.289Z,17.31
2023-09-03T03:18:54.939Z,17.32
2023-09-03T03:21:30.353Z,17.34
2023-09-03T03:24:06.372Z,17.26
2023-09-03T03:26:41.793Z,17.22
2023-09-03T03:29:17.944Z,17.23
2023-09-03T03:31:56.053Z,17.25
2023-09-03T03:34:26.531Z,17.23
2023-09-03T03:37:00.696Z,17.29
2023-09-03T03:39:31.545Z,17.29
2023-09-03T03:42:01.952Z,17.26
2023-09-03T03:44:33.296Z,17.27
2023-09-03T03:47:07.533Z,17.36
2023-09-03T03:49:38.083Z,17.44
2023-09-03T03:52:10.221Z,17.50
2023-09-03T03:54:40.836Z,17.45
2023-09-03T03:57:13.676Z,17.53
2023-09-03T03:59:44.639Z,17.46
2023-09-03T04:02:18.412Z,17.50
2023-09-03T04:04:50.455Z,17.49
2023-09-03T04:07:44.425Z,17.53
2023-09-03T04:10:16.991Z,17.51
2023-09-03T04:12:58.221Z,17.46
2023-09-03T04:15:30.473Z,17.46
2023-09-03T04:18:03.863Z,17.46
2023-09-03T04:20:35.084Z,17.45
2023-09-03T04:23:06.516Z,17.44
2023-09-03T04:25:37.605Z,17.43
2023-09-03T04:28:10.246Z,17.45
2023-09-03T04:30:44.724Z,17.45
2023-09-03T04:33:18.266Z,17.47
2023-09-03T04:35:48.815Z,17.44
2023-09-03T04:38:20.818Z,17.50
2023-09-03T04:40:51.737Z,17.52
2023-09-03T04:43:24.194Z,17.57
2023-09-03T04:46:02.717Z,17.64
2023-09-03T04:48:37.555Z,17.71
2023-09-03T04:51:11.097Z,17.69
2023-09-03T04:53:42.028Z,17.70
2023-09-03T04:56:19.934Z,17.73
2023-09-03T04:58:52.539Z,17.75
2023-09-03T05:01:30.926Z,17.74
2023-09-03T05:04:25.425Z,17.81
2023-09-03T05:06:57.161Z,17.64
2023-09-03T05:09:27.680Z,17.55
2023-09-03T05:12:02.747Z,17.55
2023-09-03T05:14:39.896Z,17.62
2023-09-03T05:20:36.367Z,17.80
2023-09-03T05:23:17.134Z,17.82
2023-09-03T05:25:56.255Z,17.89
2023-09-03T05:28:38.903Z,17.94
2023-09-03T05:31:33.275Z,18.05
2023-09-03T05:37:50.521Z,18.29
2023-09-03T05:44:13.805Z,18.68
2023-09-03T05:50:00.492Z,18.79
2023-09-03T05:52:45.823Z,18.85
2023-09-03T05:55:28.150Z,18.88
2023-09-03T05:58:04.489Z,18.93
2023-09-03T06:01:03.797Z,19.05
2023-09-03T06:03:36.246Z,19.22
2023-09-03T06:06:16.656Z,19.32
2023-09-03T06:08:48.879Z,19.34
2023-09-03T06:11:20.365Z,19.28
2023-09-03T06:13:57.343Z,19.36
2023-09-03T06:16:34.667Z,19.33
2023-09-03T06:19:06.601Z,19.44
2023-09-03T06:21:40.687Z,19.48
2023-09-03T06:24:24.828Z,19.48
2023-09-03T06:27:00.068Z,19.55
2023-09-03T06:29:54.888Z,19.61
2023-09-03T06:32:26.539Z,19.66
2023-09-03T06:34:59.700Z,19.73
2023-09-03T06:37:31.853Z,19.72
2023-09-03T06:40:10.019Z,19.92
2023-09-03T06:42:41.433Z,20.23
2023-09-03T06:45:44.076Z,20.36
2023-09-03T06:48:25.900Z,20.42
2023-09-03T06:51:07.993Z,20.77
2023-09-03T06:53:41.254Z,20.98
2023-09-03T06:56:14.822Z,21.11
2023-09-03T06:58:46.542Z,20.91
2023-09-03T07:01:20.814Z,21.25
2023-09-03T07:03:54.481Z,21.20
2023-09-03T07:06:25.141Z,21.40
2023-09-03T07:08:56.677Z,21.50
2023-09-03T07:11:27.379Z,21.32
2023-09-03T07:13:57.879Z,21.21
2023-09-03T07:16:28.810Z,21.02
2023-09-03T07:19:02.678Z,21.01
2023-09-03T07:21:41.966Z,21.07
2023-09-03T07:24:17.336Z,21.08
2023-09-03T07:26:51.172Z,21.33
2023-09-03T07:29:22.012Z,21.38
2023-09-03T07:31:54.843Z,21.37
2023-09-03T07:34:31.601Z,21.63
2023-09-03T07:37:07.199Z,21.60
2023-09-03T07:39:42.948Z,21.69
2023-09-03T07:42:14.161Z,21.69
2023-09-03T07:44:47.476Z,21.85
2023-09-03T07:47:18.998Z,21.67
2023-09-03T07:49:53.068Z,21.70
2023-09-03T07:52:25.383Z,21.79
2023-09-03T07:54:56.276Z,21.76
2023-09-03T07:57:39.891Z,21.64
2023-09-03T08:00:11.844Z,21.67
2023-09-03T08:02:48.733Z,21.62
2023-09-03T08:05:23.194Z,21.61
2023-09-03T08:07:56.271Z,21.57
2023-09-03T08:10:34.652Z,21.72
2023-09-03T08:15:57.844Z,21.64
2023-09-03T08:18:39.356Z,21.44
2023-09-03T08:21:12.604Z,21.46
2023-09-03T08:23:43.009Z,21.57
2023-09-03T08:26:13.938Z,21.63
2023-09-03T08:28:44.343Z,21.77
2023-09-03T08:31:14.974Z,21.86
2023-09-03T08:33:45.922Z,21.89
2023-09-03T08:36:19.267Z,21.92
2023-09-03T08:38:49.282Z,21.96
2023-09-03T08:41:19.744Z,21.97
2023-09-03T08:43:53.318Z,22.03
2023-09-03T08:46:27.990Z,22.49
2023-09-03T08:48:58.667Z,22.44
2023-09-03T08:51:33.277Z,22.51
2023-09-03T08:54:08.013Z,22.76
2023-09-03T08:56:39.182Z,23.21
2023-09-03T08:59:09.692Z,22.97
2023-09-03T09:01:41.643Z,22.95
2023-09-03T09:04:13.424Z,23.21
2023-09-03T09:06:51.096Z,23.29
2023-09-03T09:09:22.720Z,23.59
2023-09-03T09:12:01.717Z,23.40
2023-09-03T09:14:40.964Z,23.73
2023-09-03T09:17:17.078Z,23.90
2023-09-03T09:19:47.472Z,23.66
2023-09-03T09:22:22.028Z,23.75
2023-09-03T09:24:55.643Z,23.72
2023-09-03T09:27:27.626Z,23.57
2023-09-03T09:30:17.606Z,23.57
2023-09-03T09:32:49.647Z,23.71
2023-09-03T09:35:41.747Z,23.74
2023-09-03T09:38:17.304Z,23.93
2023-09-03T09:40:49.227Z,23.82
2023-09-03T09:43:20.398Z,24.01
2023-09-03T09:45:53.819Z,24.34
2023-09-03T09:48:24.761Z,24.45
2023-09-03T09:50:57.394Z,24.65
2023-09-03T09:53:32.719Z,24.84
2023-09-03T09:56:04.679Z,24.62
2023-09-03T09:58:42.532Z,24.67
2023-09-03T10:01:14.458Z,24.61
2023-09-03T10:03:46.974Z,24.93
2023-09-03T10:06:18.384Z,25.26
2023-09-03T10:08:53.457Z,25.17
2023-09-03T10:11:25.673Z,25.05
2023-09-03T10:13:56.496Z,24.93
2023-09-03T10:16:30.460Z,25.03
2023-09-03T10:19:07.082Z,24.32
2023-09-03T10:24:18.591Z,24.58
2023-09-03T10:26:56.608Z,24.86
2023-09-03T10:29:31.434Z,24.63
2023-09-03T10:32:06.576Z,24.48
2023-09-03T10:34:40.796Z,24.48
2023-09-03T10:37:16.014Z,24.35
2023-09-03T10:39:50.199Z,24.27
2023-09-03T10:42:33.381Z,24.32
2023-09-03T10:45:05.351Z,24.35
2023-09-03T10:47:36.636Z,24.30
2023-09-03T10:50:07.859Z,24.35
2023-09-03T10:52:43.339Z,24.02
2023-09-03T10:55:19.488Z,23.95
2023-09-03T10:57:51.511Z,24.00
2023-09-03T11:00:26.713Z,24.07
2023-09-03T11:03:25.151Z,24.01
2023-09-03T11:06:21.227Z,23.86
2023-09-03T11:08:52.113Z,23.89
2023-09-03T11:11:26.934Z,23.95
2023-09-03T11:14:00.033Z,23.96
2023-09-03T11:16:35.448Z,23.98
2023-09-03T11:19:09.322Z,23.80
2023-09-03T11:21:41.134Z,24.10
2023-09-03T11:24:16.721Z,24.25
2023-09-03T11:26:51.333Z,24.29
2023-09-03T11:29:27.626Z,24.34
2023-09-03T11:32:02.037Z,23.84
2023-09-03T11:34:34.531Z,24.08
2023-09-03T11:37:07.252Z,24.14
2023-09-03T11:39:37.638Z,23.96
2023-09-03T11:42:15.628Z,23.72
2023-09-03T11:44:46.222Z,23.67
2023-09-03T11:47:16.916Z,23.67
2023-09-03T11:49:49.690Z,23.80
2023-09-03T11:52:21.203Z,23.97
2023-09-03T11:54:52.547Z,24.02
2023-09-03T11:57:25.990Z,24.04
2023-09-03T11:59:56.759Z,24.11
2023-09-03T12:02:30.577Z,24.05
2023-09-03T12:05:03.160Z,23.89
2023-09-03T12:07:33.792Z,24.14
2023-09-03T12:10:04.793Z,24.07
2023-09-03T12:12:38.527Z,24.11
2023-09-03T12:15:24.317Z,24.02
2023-09-03T12:17:55.871Z,24.30
2023-09-03T12:20:36.637Z,24.23
2023-09-03T12:23:20.017Z,23.74
2023-09-03T12:25:50.868Z,24.00
2023-09-03T12:28:37.917Z,23.93
2023-09-03T12:31:10.042Z,23.96
2023-09-03T12:33:53.154Z,23.87
2023-09-03T12:36:25.293Z,24.07
2023-09-03T12:39:01.402Z,24.31
2023-09-03T12:41:36.746Z,24.55
2023-09-03T12:44:16.827Z,24.79
2023-09-03T12:46:47.331Z,25.20
2023-09-03T12:49:18.023Z,25.20
2023-09-03T12:51:49.632Z,25.25
2023-09-03T12:54:21.276Z,25.21
2023-09-03T12:56:55.621Z,24.36
2023-09-03T12:59:29.698Z,24.08
2023-09-03T13:02:02.673Z,23.93
2023-09-03T13:04:36.330Z,24.25
2023-09-03T13:07:08.234Z,23.98
2023-09-03T13:09:39.233Z,23.85
2023-09-03T13:12:10.893Z,23.89
2023-09-03T13:14:47.339Z,24.18
2023-09-03T13:17:18.162Z,24.40
2023-09-03T13:19:48.802Z,24.49
2023-09-03T13:22:19.355Z,24.74
2023-09-03T13:24:50.162Z,23.86
2023-09-03T13:27:23.229Z,24.19
2023-09-03T13:29:57.273Z,24.42
2023-09-03T13:32:28.405Z,24.08
2023-09-03T13:34:59.156Z,24.04
2023-09-03T13:37:29.999Z,23.82
2023-09-03T13:40:00.640Z,24.15
2023-09-03T13:42:31.724Z,24.07
2023-09-03T13:45:05.623Z,23.92
2023-09-03T13:47:37.054Z,23.96
2023-09-03T13:50:09.353Z,24.02
2023-09-03T13:52:40.667Z,24.22
2023-09-03T13:55:12.682Z,23.99
2023-09-03T13:57:43.290Z,24.21
2023-09-03T14:00:20.149Z,24.67
2023-09-03T14:02:51.415Z,24.37
2023-09-03T14:05:24.299Z,23.84
2023-09-03T14:07:56.551Z,23.78
2023-09-03T14:10:31.424Z,24.02
2023-09-03T14:13:02.564Z,23.94
2023-09-03T14:15:37.910Z,23.83
2023-09-03T14:18:13.194Z,23.58
2023-09-03T14:20:44.162Z,23.75
2023-09-03T14:23:15.069Z,23.74
2023-09-03T14:25:46.314Z,23.60
2023-09-03T14:28:17.345Z,23.40
2023-09-03T14:30:53.194Z,23.30
2023-09-03T14:33:24.798Z,23.28
2023-09-03T14:35:56.737Z,23.24
2023-09-03T14:38:28.126Z,23.20
2023-09-03T14:41:01.329Z,23.31
2023-09-03T14:43:32.139Z,23.13
2023-09-03T14:46:06.756Z,23.21
2023-09-03T14:48:37.822Z,23.10
2023-09-03T14:51:08.652Z,22.98
2023-09-03T14:53:40.141Z,23.27
2023-09-03T14:56:11.906Z,23.38
2023-09-03T14:58:42.517Z,23.15
2023-09-03T15:01:24.312Z,23.04
2023-09-03T15:03:55.506Z,22.77
2023-09-03T15:06:27.177Z,22.71
2023-09-03T15:08:57.997Z,22.70
2023-09-03T15:11:29.092Z,22.66
2023-09-03T15:14:02.056Z,22.50
2023-09-03T15:16:36.195Z,22.40
2023-09-03T15:19:07.848Z,22.25
2023-09-03T15:21:39.889Z,22.19
2023-09-03T15:24:11.233Z,22.17
2023-09-03T15:26:43.256Z,22.14
2023-09-03T15:29:13.743Z,22.25
2023-09-03T15:31:47.238Z,22.18
2023-09-03T15:34:18.441Z,22.33
2023-09-03T15:36:49.140Z,22.28
2023-09-03T15:39:20.027Z,22.21
2023-09-03T15:41:50.928Z,22.34
2023-09-03T15:44:21.475Z,22.37
2023-09-03T15:46:54.837Z,22.45
2023-09-03T15:49:28.120Z,22.44
2023-09-03T15:51:58.655Z,22.47
2023-09-03T15:54:31.961Z,22.56
2023-09-03T15:57:03.141Z,22.49
2023-09-03T15:59:37.468Z,22.37
2023-09-03T16:02:11.137Z,22.22
2023-09-03T16:04:43.340Z,22.20
2023-09-03T16:07:14.821Z,22.29
2023-09-03T16:09:46.472Z,22.30
2023-09-03T16:12:17.192Z,22.29
2023-09-03T16:14:49.970Z,22.22
2023-09-03T16:17:23.229Z,22.09
2023-09-03T16:19:55.690Z,22.05
2023-09-03T16:22:28.581Z,21.97
2023-09-03T16:24:59.418Z,21.90
2023-09-03T16:27:30.887Z,21.83
2023-09-03T16:30:02.203Z,21.77
2023-09-03T16:32:35.918Z,21.68
2023-09-03T16:35:07.069Z,21.68
2023-09-03T16:37:38.242Z,21.66
2023-09-03T16:40:12.038Z,21.62
2023-09-03T16:42:43.204Z,21.53
2023-09-03T16:45:22.638Z,21.54
2023-09-03T16:47:56.425Z,21.56
2023-09-03T16:50:29.402Z,21.42
2023-09-03T16:53:00.184Z,21.36
2023-09-03T16:55:31.022Z,21.32
2023-09-03T16:58:01.810Z,21.31
2023-09-03T17:00:33.091Z,21.23
2023-09-03T17:03:07.796Z,21.24
2023-09-03T17:05:39.928Z,21.16
2023-09-03T17:08:11.923Z,21.16
2023-09-03T17:10:43.432Z,21.15
2023-09-03T17:13:16.450Z,21.18
2023-09-03T17:15:52.665Z,21.10
2023-09-03T17:18:32.292Z,21.04
2023-09-03T17:21:02.812Z,21.00
2023-09-03T17:23:33.760Z,20.94
2023-09-03T17:26:25.143Z,20.90
2023-09-03T17:29:02.764Z,20.76
2023-09-03T17:31:34.750Z,20.77
2023-09-03T17:34:08.744Z,20.78
2023-09-03T17:36:39.767Z,20.74
2023-09-03T17:39:11.628Z,20.65
2023-09-03T17:41:42.494Z,20.65
2023-09-03T17:44:14.211Z,20.60
2023-09-03T17:46:46.399Z,20.52
2023-09-03T17:49:19.934Z,20.51
2023-09-03T17:51:51.373Z,20.52
2023-09-03T17:54:22.414Z,20.44
2023-09-03T17:56:54.023Z,20.40
2023-09-03T17:59:25.304Z,20.37
2023-09-03T18:01:59.674Z,20.32
2023-09-03T18:04:34.131Z,20.32
2023-09-03T18:07:05.442Z,20.24
2023-09-03T18:09:40.659Z,20.15
2023-09-03T18:12:11.824Z,20.12
2023-09-03T18:14:50.184Z,20.12
2023-09-03T18:17:22.157Z,20.08
2023-09-03T18:19:56.509Z,20.04
2023-09-03T18:22:29.024Z,19.92
2023-09-03T18:25:05.737Z,19.92
2023-09-03T18:27:38.312Z,19.85
2023-09-03T18:30:13.862Z,19.78
2023-09-03T18:32:48.146Z,19.79
2023-09-03T18:35:24.783Z,19.74
2023-09-03T18:37:59.667Z,19.67
2023-09-03T18:40:33.346Z,19.63
2023-09-03T18:43:03.867Z,19.63
2023-09-03T18:45:35.421Z,19.59
2023-09-03T18:48:08.729Z,19.55
2023-09-03T18:50:43.826Z,19.51
2023-09-03T18:53:15.128Z,19.35
2023-09-03T18:55:46.876Z,19.38
2023-09-03T18:58:17.576Z,19.35
2023-09-03T19:00:50.692Z,19.35
2023-09-03T19:03:21.642Z,19.29
2023-09-03T19:05:55.912Z,19.22
2023-09-03T19:08:27.262Z,19.29
2023-09-03T19:11:02.351Z,19.23
2023-09-03T19:13:33.115Z,19.22
2023-09-03T19:16:05.556Z,19.23
2023-09-03T19:18:36.391Z,19.15
2023-09-03T19:21:11.324Z,19.15
2023-09-03T19:23:44.564Z,18.97
2023-09-03T19:26:16.752Z,18.89
2023-09-03T19:28:50.135Z,18.89
2023-09-03T19:31:20.763Z,18.91
2023-09-03T19:33:54.666Z,18.88
2023-09-03T19:36:27.938Z,18.80
2023-09-03T19:38:59.069Z,18.83
2023-09-03T19:41:29.682Z,18.80
2023-09-03T19:44:01.034Z,18.76
2023-09-03T19:46:31.661Z,18.66
2023-09-03T19:49:02.528Z,18.66
2023-09-03T19:51:35.916Z,18.58
2023-09-03T19:54:06.421Z,18.61
2023-09-03T19:56:37.663Z,18.48
2023-09-03T19:59:08.850Z,18.45
2023-09-03T20:01:39.713Z,18.41
2023-09-03T20:04:10.409Z,18.36
2023-09-03T20:06:43.916Z,18.33
2023-09-03T20:09:14.802Z,18.27
2023-09-03T20:11:45.357Z,18.17
2023-09-03T20:14:16.227Z,18.12
2023-09-03T20:16:47.024Z,18.09
2023-09-03T20:19:20.026Z,18.00
2023-09-03T20:21:57.450Z,17.92
2023-09-03T20:24:28.314Z,17.85
2023-09-03T20:26:59.109Z,17.76
2023-09-03T20:29:30.243Z,17.70
2023-09-03T20:32:04.205Z,17.66
2023-09-03T20:34:38.589Z,17.63
2023-09-03T20:37:13.719Z,17.57
2023-09-03T20:39:50.554Z,17.55
2023-09-03T20:42:22.091Z,17.49
2023-09-03T20:44:54.032Z,17.43
2023-09-03T20:47:25.597Z,17.34
2023-09-03T20:49:56.967Z,17.22
2023-09-03T20:52:36.418Z,17.17
2023-09-03T20:55:07.729Z,17.16
2023-09-03T20:57:39.735Z,17.12
2023-09-03T21:00:12.726Z,17.07
2023-09-03T21:02:43.483Z,17.05
2023-09-03T21:05:15.138Z,17.01
2023-09-03T21:07:49.520Z,16.98
2023-09-03T21:10:20.415Z,16.92
2023-09-03T21:12:51.147Z,16.90
2023-09-03T21:15:22.973Z,16.82
2023-09-03T21:17:54.249Z,16.78
2023-09-03T21:20:25.507Z,16.84
2023-09-03T21:22:59.083Z,16.80
2023-09-03T21:25:29.827Z,16.80
2023-09-03T21:28:01.665Z,16.76
2023-09-03T21:30:34.810Z,16.71
2023-09-03T21:33:06.184Z,16.74
2023-09-03T21:35:41.308Z,16.66
2023-09-03T21:38:15.406Z,16.60
2023-09-03T21:40:46.657Z,16.61
2023-09-03T21:43:18.400Z,16.59
2023-09-03T21:45:49.699Z,16.59
2023-09-03T21:48:23.183Z,16.55
2023-09-03T21:51:05.492Z,16.56
2023-09-03T21:53:47.358Z,16.43
2023-09-03T21:56:17.951Z,16.37
2023-09-03T21:58:50.098Z,16.38
2023-09-03T22:01:23.001Z,16.39
2023-09-03T22:03:53.448Z,16.38
2023-09-03T22:06:24.746Z,16.39
2023-09-03T22:08:59.079Z,16.43
2023-09-03T22:11:29.537Z,16.40
2023-09-03T22:14:00.030Z,16.50
2023-09-03T22:16:31.153Z,16.43
2023-09-03T22:19:12.961Z,16.47
2023-09-03T22:21:47.765Z,16.51
2023-09-03T22:24:22.348Z,16.45
2023-09-03T22:26:54.129Z,16.45
2023-09-03T22:29:24.658Z,16.45
2023-09-03T22:31:55.443Z,16.46
2023-09-03T22:34:26.703Z,16.45
2023-09-03T22:36:57.598Z,16.41
2023-09-03T22:39:31.668Z,16.40
2023-09-03T22:42:02.212Z,16.29
2023-09-03T22:44:32.712Z,16.28
2023-09-03T22:47:03.627Z,16.29
2023-09-03T22:49:34.362Z,16.24
2023-09-03T22:52:05.554Z,16.27
2023-09-03T22:54:40.404Z,16.25
2023-09-03T22:57:11.481Z,16.25
2023-09-03T22:59:42.018Z,16.24
2023-09-03T23:02:12.851Z,16.27
2023-09-03T23:04:43.254Z,16.22
2023-09-03T23:07:14.436Z,16.24
2023-09-03T23:09:48.283Z,16.23
2023-09-03T23:12:19.110Z,16.18
2023-09-03T23:14:49.703Z,16.13
2023-09-03T23:17:21.002Z,16.16
2023-09-03T23:19:52.743Z,16.06
2023-09-03T23:22:23.027Z,16.01
2023-09-03T23:24:56.311Z,15.94
2023-09-03T23:27:29.907Z,15.90
2023-09-03T23:30:00.665Z,15.87
2023-09-03T23:32:31.588Z,15.77
2023-09-03T23:35:01.802Z,15.72
2023-09-03T23:37:32.319Z,15.67
2023-09-03T23:40:07.210Z,15.62
2023-09-03T23:42:38.956Z,15.61
2023-09-03T23:45:12.843Z,15.53
2023-09-03T23:47:44.876Z,15.47
2023-09-03T23:50:15.428Z,15.38
2023-09-03T23:52:45.865Z,15.34
2023-09-03T23:55:19.156Z,15.37
2023-09-03T23:57:49.445Z,15.31
